sensor_id;sensor_type;location;lat;lon;timestamp;P1;durP1;ratioP1;P2;durP2;ratioP2
65863;SDS011;52639;51.180;20.460;2023-06-22T00:01:23;19.23;;;14.35;;
65863;SDS011;52639;51.180;20.460;2023-06-22T00:05:28;20.70;;;14.10;;
65863;SDS011;52639;51.180;20.460;2023-06-22T00:09:33;19.63;;;13.43;;
65863;SDS011;52639;51.180;20.460;2023-06-22T00:13:39;20.98;;;13.48;;
65863;SDS011;52639;51.180;20.460;2023-06-22T00:17:45;22.25;;;14.48;;
65863;SDS011;52639;51.180;20.460;2023-06-22T00:30:56;24.63;;;16.52;;
65863;SDS011;52639;51.180;20.460;2023-06-22T00:35:06;29.85;;;16.45;;
65863;SDS011;52639;51.180;20.460;2023-06-22T00:39:10;30.92;;;19.33;;
65863;SDS011;52639;51.180;20.460;2023-06-22T00:43:14;26.13;;;16.90;;
65863;SDS011;52639;51.180;20.460;2023-06-22T00:47:24;26.92;;;16.90;;
65863;SDS011;52639;51.180;20.460;2023-06-22T00:51:32;37.03;;;20.95;;
65863;SDS011;52639;51.180;20.460;2023-06-22T00:55:41;40.33;;;19.92;;
65863;SDS011;52639;51.180;20.460;2023-06-22T00:59:56;40.90;;;20.42;;
65863;SDS011;52639;51.180;20.460;2023-06-22T01:04:39;38.53;;;20.27;;
65863;SDS011;52639;51.180;20.460;2023-06-22T01:09:02;39.35;;;19.90;;
65863;SDS011;52639;51.180;20.460;2023-06-22T01:13:35;29.52;;;17.23;;
65863;SDS011;52639;51.180;20.460;2023-06-22T01:18:40;31.00;;;17.92;;
65863;SDS011;52639;51.180;20.460;2023-06-22T01:29:11;43.78;;;22.33;;
65863;SDS011;52639;51.180;20.460;2023-06-22T01:34:27;52.67;;;23.33;;
65863;SDS011;52639;51.180;20.460;2023-06-22T01:38:50;43.35;;;22.45;;
65863;SDS011;52639;51.180;20.460;2023-06-22T01:43:29;41.28;;;21.17;;
65863;SDS011;52639;51.180;20.460;2023-06-22T01:48:25;36.35;;;20.25;;
65863;SDS011;52639;51.180;20.460;2023-06-22T01:57:47;43.30;;;22.80;;
65863;SDS011;52639;51.180;20.460;2023-06-22T02:02:29;38.72;;;21.13;;
65863;SDS011;52639;51.180;20.460;2023-06-22T02:07:30;35.88;;;19.55;;
65863;SDS011;52639;51.180;20.460;2023-06-22T02:13:08;34.85;;;19.45;;
65863;SDS011;52639;51.180;20.460;2023-06-22T03:00:23;44.28;;;22.42;;
65863;SDS011;52639;51.180;20.460;2023-06-22T03:27:43;30.00;;;18.85;;
65863;SDS011;52639;51.180;20.460;2023-06-22T04:14:16;31.05;;;21.83;;
65863;SDS011;52639;51.180;20.460;2023-06-22T04:19:13;32.80;;;21.70;;
65863;SDS011;52639;51.180;20.460;2023-06-22T04:24:08;46.53;;;29.67;;
65863;SDS011;52639;51.180;20.460;2023-06-22T04:57:38;36.25;;;26.27;;
65863;SDS011;52639;51.180;20.460;2023-06-22T05:08:16;42.45;;;28.58;;
65863;SDS011;52639;51.180;20.460;2023-06-22T05:32:38;36.03;;;27.25;;
65863;SDS011;52639;51.180;20.460;2023-06-22T05:36:42;36.38;;;27.20;;
65863;SDS011;52639;51.180;20.460;2023-06-22T05:40:48;43.08;;;28.83;;
65863;SDS011;52639;51.180;20.460;2023-06-22T05:44:53;38.30;;;28.38;;
65863;SDS011;52639;51.180;20.460;2023-06-22T05:48:56;34.85;;;26.63;;
65863;SDS011;52639;51.180;20.460;2023-06-22T05:53:00;35.55;;;26.63;;
65863;SDS011;52639;51.180;20.460;2023-06-22T05:57:08;30.77;;;24.42;;
65863;SDS011;52639;51.180;20.460;2023-06-22T06:01:40;33.13;;;23.30;;
65863;SDS011;52639;51.180;20.460;2023-06-22T06:05:48;29.58;;;22.85;;
65863;SDS011;52639;51.180;20.460;2023-06-22T06:09:52;30.30;;;22.65;;
65863;SDS011;52639;51.180;20.460;2023-06-22T06:13:57;25.92;;;19.95;;
65863;SDS011;52639;51.180;20.460;2023-06-22T06:18:17;24.27;;;18.25;;
65863;SDS011;52639;51.180;20.460;2023-06-22T06:22:39;21.23;;;18.50;;
65863;SDS011;52639;51.180;20.460;2023-06-22T06:26:54;20.13;;;17.98;;
65863;SDS011;52639;51.180;20.460;2023-06-22T06:30:59;18.40;;;15.90;;
65863;SDS011;52639;51.180;20.460;2023-06-22T06:35:25;19.83;;;16.23;;
65863;SDS011;52639;51.180;20.460;2023-06-22T06:39:29;17.10;;;15.05;;
65863;SDS011;52639;51.180;20.460;2023-06-22T06:43:32;16.65;;;14.90;;
65863;SDS011;52639;51.180;20.460;2023-06-22T06:47:35;19.75;;;14.82;;
65863;SDS011;52639;51.180;20.460;2023-06-22T06:51:42;15.98;;;14.35;;
65863;SDS011;52639;51.180;20.460;2023-06-22T06:56:05;14.35;;;12.80;;
65863;SDS011;52639;51.180;20.460;2023-06-22T07:00:51;14.32;;;12.93;;
65863;SDS011;52639;51.180;20.460;2023-06-22T07:04:57;14.07;;;12.55;;
65863;SDS011;52639;51.180;20.460;2023-06-22T07:09:19;12.52;;;10.80;;
65863;SDS011;52639;51.180;20.460;2023-06-22T07:13:36;12.23;;;10.88;;
65863;SDS011;52639;51.180;20.460;2023-06-22T07:17:39;11.02;;;9.82;;
65863;SDS011;52639;51.180;20.460;2023-06-22T07:26:37;12.70;;;11.13;;
65863;SDS011;52639;51.180;20.460;2023-06-22T07:35:59;12.70;;;9.15;;
65863;SDS011;52639;51.180;20.460;2023-06-22T07:40:04;10.88;;;9.73;;
65863;SDS011;52639;51.180;20.460;2023-06-22T07:44:31;13.68;;;9.70;;
65863;SDS011;52639;51.180;20.460;2023-06-22T07:48:56;11.70;;;8.98;;
65863;SDS011;52639;51.180;20.460;2023-06-22T07:53:04;10.70;;;7.90;;
65863;SDS011;52639;51.180;20.460;2023-06-22T07:57:31;8.65;;;7.82;;
65863;SDS011;52639;51.180;20.460;2023-06-22T08:02:04;10.90;;;8.52;;
65863;SDS011;52639;51.180;20.460;2023-06-22T08:06:24;9.98;;;7.57;;
65863;SDS011;52639;51.180;20.460;2023-06-22T08:10:29;11.63;;;7.30;;
65863;SDS011;52639;51.180;20.460;2023-06-22T08:14:37;9.65;;;6.43;;
65863;SDS011;52639;51.180;20.460;2023-06-22T08:23:35;9.13;;;5.57;;
65863;SDS011;52639;51.180;20.460;2023-06-22T08:28:00;7.93;;;5.90;;
65863;SDS011;52639;51.180;20.460;2023-06-22T08:32:21;8.25;;;5.80;;
65863;SDS011;52639;51.180;20.460;2023-06-22T08:58:51;5.55;;;4.10;;
65863;SDS011;52639;51.180;20.460;2023-06-22T09:07:33;7.47;;;4.18;;
65863;SDS011;52639;51.180;20.460;2023-06-22T09:11:36;7.82;;;3.75;;
65863;SDS011;52639;51.180;20.460;2023-06-22T09:15:41;6.78;;;3.83;;
65863;SDS011;52639;51.180;20.460;2023-06-22T09:19:45;6.32;;;3.40;;
65863;SDS011;52639;51.180;20.460;2023-06-22T09:23:49;6.10;;;3.70;;
65863;SDS011;52639;51.180;20.460;2023-06-22T09:27:52;4.28;;;3.00;;
65863;SDS011;52639;51.180;20.460;2023-06-22T09:32:00;5.82;;;3.60;;
65863;SDS011;52639;51.180;20.460;2023-06-22T09:36:04;7.07;;;3.55;;
65863;SDS011;52639;51.180;20.460;2023-06-22T09:40:09;5.18;;;3.47;;
65863;SDS011;52639;51.180;20.460;2023-06-22T09:44:14;5.38;;;3.60;;
65863;SDS011;52639;51.180;20.460;2023-06-22T09:48:18;4.95;;;3.83;;
65863;SDS011;52639;51.180;20.460;2023-06-22T09:52:33;4.40;;;3.80;;
65863;SDS011;52639;51.180;20.460;2023-06-22T09:56:54;7.00;;;4.28;;
65863;SDS011;52639;51.180;20.460;2023-06-22T10:00:57;5.57;;;4.18;;
65863;SDS011;52639;51.180;20.460;2023-06-22T10:05:02;5.75;;;4.13;;
65863;SDS011;52639;51.180;20.460;2023-06-22T10:09:05;6.15;;;4.18;;
65863;SDS011;52639;51.180;20.460;2023-06-22T10:13:10;8.88;;;4.30;;
65863;SDS011;52639;51.180;20.460;2023-06-22T10:17:13;6.65;;;4.38;;
65863;SDS011;52639;51.180;20.460;2023-06-22T10:21:18;7.80;;;4.15;;
65863;SDS011;52639;51.180;20.460;2023-06-22T10:25:21;6.47;;;4.65;;
65863;SDS011;52639;51.180;20.460;2023-06-22T10:29:24;8.38;;;4.18;;
65863;SDS011;52639;51.180;20.460;2023-06-22T10:33:27;6.57;;;4.20;;
65863;SDS011;52639;51.180;20.460;2023-06-22T10:37:32;7.50;;;4.60;;
65863;SDS011;52639;51.180;20.460;2023-06-22T10:41:35;6.20;;;4.60;;
65863;SDS011;52639;51.180;20.460;2023-06-22T10:45:52;7.80;;;3.72;;
65863;SDS011;52639;51.180;20.460;2023-06-22T10:49:55;6.25;;;3.95;;
65863;SDS011;52639;51.180;20.460;2023-06-22T10:54:14;5.45;;;3.30;;
65863;SDS011;52639;51.180;20.460;2023-06-22T10:58:34;5.38;;;3.65;;
65863;SDS011;52639;51.180;20.460;2023-06-22T11:02:38;4.93;;;3.60;;
65863;SDS011;52639;51.180;20.460;2023-06-22T11:06:41;6.70;;;4.05;;
65863;SDS011;52639;51.180;20.460;2023-06-22T11:10:51;7.60;;;3.85;;
65863;SDS011;52639;51.180;20.460;2023-06-22T11:15:02;6.05;;;3.80;;
65863;SDS011;52639;51.180;20.460;2023-06-22T11:19:08;6.32;;;3.72;;
65863;SDS011;52639;51.180;20.460;2023-06-22T11:23:55;6.72;;;3.92;;
65863;SDS011;52639;51.180;20.460;2023-06-22T11:28:04;6.60;;;3.67;;
65863;SDS011;52639;51.180;20.460;2023-06-22T11:32:09;5.60;;;3.55;;
65863;SDS011;52639;51.180;20.460;2023-06-22T11:36:13;6.15;;;3.60;;
65863;SDS011;52639;51.180;20.460;2023-06-22T11:49:57;7.05;;;4.20;;
65863;SDS011;52639;51.180;20.460;2023-06-22T11:54:06;7.72;;;3.80;;
65863;SDS011;52639;51.180;20.460;2023-06-22T11:58:15;8.20;;;3.80;;
65863;SDS011;52639;51.180;20.460;2023-06-22T12:02:21;5.93;;;3.70;;
65863;SDS011;52639;51.180;20.460;2023-06-22T12:06:24;6.85;;;3.58;;
65863;SDS011;52639;51.180;20.460;2023-06-22T12:10:27;6.38;;;3.63;;
65863;SDS011;52639;51.180;20.460;2023-06-22T12:14:37;5.20;;;3.33;;
65863;SDS011;52639;51.180;20.460;2023-06-22T12:18:47;6.60;;;3.75;;
65863;SDS011;52639;51.180;20.460;2023-06-22T12:22:52;8.63;;;3.70;;
65863;SDS011;52639;51.180;20.460;2023-06-22T12:26:58;8.55;;;3.95;;
65863;SDS011;52639;51.180;20.460;2023-06-22T12:31:10;7.75;;;3.90;;
65863;SDS011;52639;51.180;20.460;2023-06-22T12:45:07;8.30;;;3.58;;
65863;SDS011;52639;51.180;20.460;2023-06-22T12:49:11;4.97;;;3.35;;
65863;SDS011;52639;51.180;20.460;2023-06-22T12:53:14;6.13;;;4.00;;
65863;SDS011;52639;51.180;20.460;2023-06-22T12:57:18;5.47;;;3.50;;
65863;SDS011;52639;51.180;20.460;2023-06-22T13:01:21;5.03;;;3.20;;
65863;SDS011;52639;51.180;20.460;2023-06-22T13:05:25;7.38;;;3.50;;
65863;SDS011;52639;51.180;20.460;2023-06-22T13:09:35;5.45;;;3.65;;
65863;SDS011;52639;51.180;20.460;2023-06-22T13:13:41;5.85;;;3.60;;
65863;SDS011;52639;51.180;20.460;2023-06-22T13:17:44;4.28;;;2.80;;
65863;SDS011;52639;51.180;20.460;2023-06-22T13:21:47;6.75;;;3.45;;
65863;SDS011;52639;51.180;20.460;2023-06-22T13:25:50;6.15;;;3.10;;
65863;SDS011;52639;51.180;20.460;2023-06-22T13:30:11;6.03;;;3.47;;
65863;SDS011;52639;51.180;20.460;2023-06-22T13:34:15;4.57;;;3.17;;
65863;SDS011;52639;51.180;20.460;2023-06-22T13:38:46;7.28;;;3.25;;
65863;SDS011;52639;51.180;20.460;2023-06-22T13:43:00;8.52;;;3.55;;
65863;SDS011;52639;51.180;20.460;2023-06-22T13:47:08;10.50;;;3.97;;
65863;SDS011;52639;51.180;20.460;2023-06-22T14:01:56;6.32;;;3.40;;
65863;SDS011;52639;51.180;20.460;2023-06-22T14:10:36;9.18;;;3.10;;
65863;SDS011;52639;51.180;20.460;2023-06-22T14:14:38;5.97;;;2.95;;
65863;SDS011;52639;51.180;20.460;2023-06-22T14:18:55;7.70;;;3.03;;
65863;SDS011;52639;51.180;20.460;2023-06-22T14:23:00;4.47;;;3.20;;
65863;SDS011;52639;51.180;20.460;2023-06-22T14:27:03;6.65;;;2.95;;
65863;SDS011;52639;51.180;20.460;2023-06-22T14:31:09;6.22;;;3.47;;
65863;SDS011;52639;51.180;20.460;2023-06-22T14:35:12;9.98;;;2.90;;
65863;SDS011;52639;51.180;20.460;2023-06-22T14:39:17;3.90;;;2.58;;
65863;SDS011;52639;51.180;20.460;2023-06-22T14:43:22;5.97;;;3.00;;
65863;SDS011;52639;51.180;20.460;2023-06-22T14:47:26;4.60;;;2.80;;
65863;SDS011;52639;51.180;20.460;2023-06-22T14:51:38;6.82;;;2.70;;
65863;SDS011;52639;51.180;20.460;2023-06-22T15:04:07;8.00;;;2.92;;
65863;SDS011;52639;51.180;20.460;2023-06-22T15:08:10;4.95;;;3.00;;
65863;SDS011;52639;51.180;20.460;2023-06-22T15:12:24;3.95;;;2.60;;
65863;SDS011;52639;51.180;20.460;2023-06-22T15:16:27;3.95;;;2.50;;
65863;SDS011;52639;51.180;20.460;2023-06-22T15:20:30;5.32;;;2.58;;
65863;SDS011;52639;51.180;20.460;2023-06-22T15:24:54;5.88;;;2.72;;
65863;SDS011;52639;51.180;20.460;2023-06-22T15:29:30;7.78;;;3.22;;
65863;SDS011;52639;51.180;20.460;2023-06-22T15:33:35;7.78;;;2.95;;
65863;SDS011;52639;51.180;20.460;2023-06-22T15:37:41;6.18;;;3.05;;
65863;SDS011;52639;51.180;20.460;2023-06-22T15:41:44;9.68;;;3.10;;
65863;SDS011;52639;51.180;20.460;2023-06-22T15:50:59;7.75;;;2.75;;
65863;SDS011;52639;51.180;20.460;2023-06-22T15:55:02;5.20;;;2.90;;
65863;SDS011;52639;51.180;20.460;2023-06-22T15:59:09;5.75;;;3.15;;
65863;SDS011;52639;51.180;20.460;2023-06-22T16:03:12;5.25;;;2.95;;
65863;SDS011;52639;51.180;20.460;2023-06-22T16:07:29;5.38;;;2.88;;
65863;SDS011;52639;51.180;20.460;2023-06-22T16:11:32;5.10;;;3.05;;
65863;SDS011;52639;51.180;20.460;2023-06-22T16:15:35;6.40;;;2.90;;
65863;SDS011;52639;51.180;20.460;2023-06-22T16:19:38;5.20;;;2.85;;
65863;SDS011;52639;51.180;20.460;2023-06-22T16:23:46;7.57;;;3.33;;
65863;SDS011;52639;51.180;20.460;2023-06-22T16:27:49;5.20;;;3.08;;
65863;SDS011;52639;51.180;20.460;2023-06-22T16:31:55;6.63;;;3.78;;
65863;SDS011;52639;51.180;20.460;2023-06-22T16:35:58;6.05;;;3.53;;
65863;SDS011;52639;51.180;20.460;2023-06-22T16:40:04;8.07;;;4.50;;
65863;SDS011;52639;51.180;20.460;2023-06-22T16:44:19;6.78;;;3.47;;
65863;SDS011;52639;51.180;20.460;2023-06-22T16:48:22;7.60;;;3.65;;
65863;SDS011;52639;51.180;20.460;2023-06-22T16:52:27;7.38;;;4.28;;
65863;SDS011;52639;51.180;20.460;2023-06-22T16:56:32;11.88;;;4.85;;
65863;SDS011;52639;51.180;20.460;2023-06-22T17:00:35;8.27;;;3.42;;
65863;SDS011;52639;51.180;20.460;2023-06-22T17:04:38;5.53;;;2.78;;
65863;SDS011;52639;51.180;20.460;2023-06-22T17:08:44;8.00;;;3.67;;
65863;SDS011;52639;51.180;20.460;2023-06-22T17:12:50;8.38;;;4.10;;
65863;SDS011;52639;51.180;20.460;2023-06-22T17:16:53;7.28;;;3.42;;
65863;SDS011;52639;51.180;20.460;2023-06-22T17:21:04;5.38;;;3.33;;
65863;SDS011;52639;51.180;20.460;2023-06-22T17:25:08;6.93;;;3.25;;
65863;SDS011;52639;51.180;20.460;2023-06-22T17:29:13;9.15;;;4.03;;
65863;SDS011;52639;51.180;20.460;2023-06-22T17:33:27;6.78;;;3.75;;
65863;SDS011;52639;51.180;20.460;2023-06-22T17:37:34;5.22;;;2.70;;
65863;SDS011;52639;51.180;20.460;2023-06-22T17:41:50;4.68;;;3.20;;
65863;SDS011;52639;51.180;20.460;2023-06-22T17:45:55;7.32;;;3.58;;
65863;SDS011;52639;51.180;20.460;2023-06-22T17:50:03;6.97;;;3.67;;
65863;SDS011;52639;51.180;20.460;2023-06-22T17:54:08;5.22;;;3.70;;
65863;SDS011;52639;51.180;20.460;2023-06-22T17:58:11;8.40;;;3.47;;
65863;SDS011;52639;51.180;20.460;2023-06-22T18:02:16;9.00;;;3.70;;
65863;SDS011;52639;51.180;20.460;2023-06-22T18:06:22;5.72;;;3.58;;
65863;SDS011;52639;51.180;20.460;2023-06-22T18:10:30;5.70;;;3.50;;
65863;SDS011;52639;51.180;20.460;2023-06-22T18:14:45;6.00;;;3.70;;
65863;SDS011;52639;51.180;20.460;2023-06-22T18:18:51;6.80;;;4.00;;
65863;SDS011;52639;51.180;20.460;2023-06-22T18:31:05;12.88;;;4.60;;
65863;SDS011;52639;51.180;20.460;2023-06-22T18:39:49;14.95;;;6.25;;
65863;SDS011;52639;51.180;20.460;2023-06-22T18:53:03;11.95;;;5.18;;
65863;SDS011;52639;51.180;20.460;2023-06-22T19:01:26;10.45;;;4.85;;
65863;SDS011;52639;51.180;20.460;2023-06-22T19:05:48;11.50;;;6.30;;
65863;SDS011;52639;51.180;20.460;2023-06-22T19:14:26;11.13;;;6.90;;
65863;SDS011;52639;51.180;20.460;2023-06-22T19:18:50;9.60;;;5.55;;
65863;SDS011;52639;51.180;20.460;2023-06-22T19:22:57;62.42;;;18.58;;
65863;SDS011;52639;51.180;20.460;2023-06-22T19:27:00;14.98;;;7.90;;
65863;SDS011;52639;51.180;20.460;2023-06-22T19:31:05;12.90;;;6.82;;
65863;SDS011;52639;51.180;20.460;2023-06-22T19:35:34;11.63;;;6.30;;
65863;SDS011;52639;51.180;20.460;2023-06-22T19:39:40;11.95;;;6.47;;
65863;SDS011;52639;51.180;20.460;2023-06-22T19:48:39;8.70;;;6.13;;
65863;SDS011;52639;51.180;20.460;2023-06-22T19:53:08;8.35;;;6.05;;
65863;SDS011;52639;51.180;20.460;2023-06-22T19:57:12;8.38;;;6.13;;
65863;SDS011;52639;51.180;20.460;2023-06-22T20:01:16;8.85;;;6.32;;
65863;SDS011;52639;51.180;20.460;2023-06-22T20:09:44;9.80;;;6.65;;
65863;SDS011;52639;51.180;20.460;2023-06-22T20:14:04;11.95;;;7.60;;
65863;SDS011;52639;51.180;20.460;2023-06-22T20:18:08;11.85;;;7.50;;
65863;SDS011;52639;51.180;20.460;2023-06-22T20:22:27;11.23;;;7.18;;
65863;SDS011;52639;51.180;20.460;2023-06-22T20:26:45;14.75;;;7.47;;
65863;SDS011;52639;51.180;20.460;2023-06-22T20:31:02;11.63;;;7.60;;
65863;SDS011;52639;51.180;20.460;2023-06-22T20:35:07;11.40;;;8.43;;
65863;SDS011;52639;51.180;20.460;2023-06-22T20:39:12;10.73;;;7.68;;
65863;SDS011;52639;51.180;20.460;2023-06-22T20:43:15;12.80;;;7.90;;
65863;SDS011;52639;51.180;20.460;2023-06-22T20:47:18;10.30;;;7.45;;
65863;SDS011;52639;51.180;20.460;2023-06-22T20:51:28;12.00;;;7.60;;
65863;SDS011;52639;51.180;20.460;2023-06-22T20:55:41;11.20;;;7.55;;
65863;SDS011;52639;51.180;20.460;2023-06-22T20:59:45;11.00;;;7.47;;
65863;SDS011;52639;51.180;20.460;2023-06-22T21:03:48;12.13;;;7.47;;
65863;SDS011;52639;51.180;20.460;2023-06-22T21:07:51;11.18;;;7.80;;
65863;SDS011;52639;51.180;20.460;2023-06-22T21:11:57;11.60;;;8.13;;
65863;SDS011;52639;51.180;20.460;2023-06-22T21:16:16;13.60;;;7.78;;
65863;SDS011;52639;51.180;20.460;2023-06-22T21:20:25;10.65;;;7.80;;
65863;SDS011;52639;51.180;20.460;2023-06-22T21:24:28;10.80;;;7.38;;
65863;SDS011;52639;51.180;20.460;2023-06-22T21:32:52;15.43;;;7.88;;
65863;SDS011;52639;51.180;20.460;2023-06-22T21:36:55;11.48;;;7.55;;
65863;SDS011;52639;51.180;20.460;2023-06-22T21:45:31;16.55;;;8.25;;
65863;SDS011;52639;51.180;20.460;2023-06-22T21:49:38;12.90;;;8.45;;
65863;SDS011;52639;51.180;20.460;2023-06-22T21:53:54;12.93;;;8.00;;
65863;SDS011;52639;51.180;20.460;2023-06-22T21:58:06;14.63;;;7.80;;
65863;SDS011;52639;51.180;20.460;2023-06-22T22:02:10;15.13;;;8.20;;
65863;SDS011;52639;51.180;20.460;2023-06-22T22:06:28;16.00;;;8.60;;
65863;SDS011;52639;51.180;20.460;2023-06-22T22:10:31;11.82;;;7.78;;
65863;SDS011;52639;51.180;20.460;2023-06-22T22:14:37;13.18;;;7.75;;
65863;SDS011;52639;51.180;20.460;2023-06-22T22:18:43;15.00;;;9.45;;
65863;SDS011;52639;51.180;20.460;2023-06-22T22:22:47;12.73;;;9.00;;
65863;SDS011;52639;51.180;20.460;2023-06-22T22:27:03;12.20;;;8.10;;
65863;SDS011;52639;51.180;20.460;2023-06-22T22:31:06;10.57;;;7.43;;
65863;SDS011;52639;51.180;20.460;2023-06-22T22:35:31;12.45;;;8.23;;
65863;SDS011;52639;51.180;20.460;2023-06-22T22:39:35;14.48;;;8.95;;
65863;SDS011;52639;51.180;20.460;2023-06-22T22:43:42;11.57;;;8.48;;
65863;SDS011;52639;51.180;20.460;2023-06-22T22:47:45;12.93;;;8.82;;
65863;SDS011;52639;51.180;20.460;2023-06-22T22:51:50;11.55;;;7.65;;
65863;SDS011;52639;51.180;20.460;2023-06-22T22:56:00;14.40;;;9.50;;
65863;SDS011;52639;51.180;20.460;2023-06-22T23:04:31;13.65;;;9.00;;
65863;SDS011;52639;51.180;20.460;2023-06-22T23:08:36;14.27;;;9.38;;
65863;SDS011;52639;51.180;20.460;2023-06-22T23:12:48;15.27;;;8.90;;
65863;SDS011;52639;51.180;20.460;2023-06-22T23:16:51;14.73;;;8.77;;
65863;SDS011;52639;51.180;20.460;2023-06-22T23:20:58;15.18;;;7.88;;
65863;SDS011;52639;51.180;20.460;2023-06-22T23:25:27;14.90;;;9.20;;
65863;SDS011;52639;51.180;20.460;2023-06-22T23:29:30;12.90;;;9.07;;
65863;SDS011;52639;51.180;20.460;2023-06-22T23:39:04;12.02;;;8.20;;
65863;SDS011;52639;51.180;20.460;2023-06-22T23:43:08;11.70;;;8.07;;
65863;SDS011;52639;51.180;20.460;2023-06-22T23:47:12;11.43;;;8.27;;
65863;SDS011;52639;51.180;20.460;2023-06-22T23:51:15;13.55;;;9.48;;
65863;SDS011;52639;51.180;20.460;2023-06-22T23:55:18;14.65;;;8.80;;
65863;SDS011;52639;51.180;20.460;2023-06-22T23:59:25;17.70;;;9.15;;
